createdAt,value
2022-09-07T00:00:09.804Z,13.20
2022-09-07T00:00:42.081Z,13.07
2022-09-07T00:01:13.751Z,15.25
2022-09-07T00:01:45.566Z,15.27
2022-09-07T00:02:17.188Z,11.90
2022-09-07T00:02:48.856Z,12.80
2022-09-07T00:03:21.568Z,13.55
2022-09-07T00:03:57.060Z,12.48
2022-09-07T00:04:28.790Z,11.77
2022-09-07T00:05:00.473Z,11.27
2022-09-07T00:05:32.469Z,11.90
2022-09-07T00:06:09.478Z,13.63
2022-09-07T00:06:41.154Z,10.43
2022-09-07T00:07:12.761Z,11.07
2022-09-07T00:07:44.421Z,10.73
2022-09-07T00:08:18.391Z,10.55
2022-09-07T00:08:50.200Z,12.60
2022-09-07T00:09:21.805Z,14.10
2022-09-07T00:09:53.481Z,12.18
2022-09-07T00:10:25.921Z,14.85
2022-09-07T00:11:04.002Z,13.98
2022-09-07T00:11:36.253Z,11.27
2022-09-07T00:12:07.867Z,11.85
2022-09-07T00:12:39.653Z,14.05
2022-09-07T00:13:11.249Z,13.27
2022-09-07T00:13:44.818Z,15.38
2022-09-07T00:14:16.747Z,12.68
2022-09-07T00:14:48.358Z,12.55
2022-09-07T00:15:20.152Z,11.85
2022-09-07T00:15:51.946Z,10.95
2022-09-07T00:16:27.103Z,13.18
2022-09-07T00:16:58.749Z,11.43
2022-09-07T00:17:30.357Z,12.15
2022-09-07T00:18:01.946Z,11.52
2022-09-07T00:18:33.794Z,13.38
2022-09-07T00:19:05.619Z,12.88
2022-09-07T00:19:37.241Z,13.68
2022-09-07T00:20:11.139Z,12.48
2022-09-07T00:20:42.768Z,13.45
2022-09-07T00:21:16.868Z,11.65
2022-09-07T00:21:48.506Z,13.45
2022-09-07T00:22:20.141Z,11.53
2022-09-07T00:22:51.765Z,13.63
2022-09-07T00:23:23.404Z,12.13
2022-09-07T00:23:55.605Z,11.23
2022-09-07T00:24:27.690Z,14.07
2022-09-07T00:24:59.300Z,12.68
2022-09-07T00:25:32.140Z,14.48
2022-09-07T00:26:10.467Z,12.43
2022-09-07T00:26:42.090Z,13.15
2022-09-07T00:27:13.755Z,11.48
2022-09-07T00:27:45.355Z,13.60
2022-09-07T00:28:16.979Z,12.52
2022-09-07T00:28:49.738Z,11.93
2022-09-07T00:29:21.414Z,14.75
2022-09-07T00:29:53.042Z,12.57
2022-09-07T00:30:24.665Z,12.00
2022-09-07T00:30:56.454Z,12.25
2022-09-07T00:31:29.865Z,12.50
2022-09-07T00:32:01.603Z,12.15
2022-09-07T00:32:33.506Z,15.57
2022-09-07T00:33:05.094Z,12.77
2022-09-07T00:33:36.704Z,13.75
2022-09-07T00:34:08.316Z,12.73
2022-09-07T00:34:39.918Z,11.68
2022-09-07T00:35:12.688Z,12.40
2022-09-07T00:35:44.340Z,12.85
2022-09-07T00:36:17.111Z,14.00
2022-09-07T00:36:48.738Z,11.77
2022-09-07T00:37:20.495Z,11.40
2022-09-07T00:37:52.123Z,13.18
2022-09-07T00:38:23.717Z,12.17
2022-09-07T00:38:55.632Z,12.20
2022-09-07T00:39:27.253Z,13.02
2022-09-07T00:39:58.943Z,13.05
2022-09-07T00:40:30.972Z,12.57
2022-09-07T00:41:02.658Z,13.00
2022-09-07T00:41:34.322Z,11.80
2022-09-07T00:42:06.206Z,13.40
2022-09-07T00:42:37.924Z,13.07
2022-09-07T00:43:16.965Z,16.00
2022-09-07T00:43:51.648Z,13.67
2022-09-07T00:44:44.725Z,12.43
2022-09-07T00:45:17.830Z,13.60
2022-09-07T00:45:49.422Z,12.15
2022-09-07T00:46:25.097Z,14.07
2022-09-07T00:46:57.671Z,14.73
2022-09-07T00:47:45.096Z,13.77
2022-09-07T00:48:19.938Z,13.65
2022-09-07T00:49:02.454Z,15.68
2022-09-07T00:49:35.243Z,13.20
2022-09-07T00:50:27.934Z,12.23
2022-09-07T00:51:04.702Z,13.15
2022-09-07T00:51:43.781Z,14.02
2022-09-07T00:52:17.438Z,12.57
2022-09-07T00:52:53.203Z,12.63
2022-09-07T00:53:43.294Z,16.08
2022-09-07T00:54:19.352Z,13.68
2022-09-07T00:54:54.410Z,13.00
2022-09-07T00:55:27.633Z,12.98
2022-09-07T00:56:01.228Z,14.05
2022-09-07T00:56:36.878Z,12.33
2022-09-07T00:57:08.950Z,12.23
2022-09-07T00:57:43.153Z,15.77
2022-09-07T00:58:15.776Z,12.95
2022-09-07T00:58:47.474Z,15.68
2022-09-07T00:59:25.589Z,11.90
2022-09-07T00:59:57.784Z,13.23
2022-09-07T01:00:30.858Z,16.83
2022-09-07T01:01:02.499Z,12.60
2022-09-07T01:01:34.749Z,12.70
2022-09-07T01:02:06.694Z,13.87
2022-09-07T01:02:38.884Z,14.50
2022-09-07T01:03:11.436Z,15.13
2022-09-07T01:03:48.864Z,12.77
2022-09-07T01:04:22.245Z,12.52
2022-09-07T01:05:04.494Z,12.90
2022-09-07T01:05:43.666Z,13.68
2022-09-07T01:06:26.438Z,13.32
2022-09-07T01:06:58.996Z,13.63
2022-09-07T01:07:30.875Z,14.20
2022-09-07T01:08:03.134Z,13.37
2022-09-07T01:08:35.998Z,15.43
2022-09-07T01:09:11.635Z,15.18
2022-09-07T01:09:44.095Z,12.90
2022-09-07T01:10:15.982Z,15.88
2022-09-07T01:10:47.618Z,14.85
2022-09-07T01:11:22.276Z,13.75
2022-09-07T01:11:57.709Z,13.18
2022-09-07T01:12:29.329Z,12.35
2022-09-07T01:13:00.985Z,13.65
2022-09-07T01:13:32.634Z,14.13
2022-09-07T01:14:09.208Z,13.77
2022-09-07T01:14:50.637Z,13.65
2022-09-07T01:15:25.271Z,12.57
2022-09-07T01:16:16.051Z,17.25
2022-09-07T01:17:17.110Z,13.98
2022-09-07T01:18:03.570Z,13.68
2022-09-07T01:19:19.272Z,14.43
2022-09-07T01:20:09.291Z,13.05
2022-09-07T01:20:43.819Z,13.30
2022-09-07T01:21:33.109Z,14.80
2022-09-07T01:22:34.740Z,13.88
2022-09-07T01:23:21.311Z,12.02
2022-09-07T01:24:27.745Z,15.02
2022-09-07T01:25:04.777Z,14.48
2022-09-07T01:26:01.310Z,15.45
2022-09-07T01:26:56.987Z,15.18
2022-09-07T01:27:36.209Z,13.52
2022-09-07T01:28:32.320Z,15.48
2022-09-07T01:29:16.681Z,13.75
2022-09-07T01:29:54.230Z,13.50
2022-09-07T01:30:27.289Z,14.07
2022-09-07T01:31:04.618Z,13.88
2022-09-07T01:32:02.954Z,14.73
2022-09-07T01:32:48.213Z,13.88
2022-09-07T01:33:51.731Z,16.20
2022-09-07T01:34:26.435Z,15.40
2022-09-07T01:35:01.957Z,17.02
2022-09-07T01:35:36.458Z,17.70
2022-09-07T01:36:10.682Z,14.40
2022-09-07T01:36:57.227Z,15.13
2022-09-07T01:37:50.587Z,16.45
2022-09-07T01:38:33.173Z,14.80
2022-09-07T01:39:06.325Z,15.20
2022-09-07T01:39:51.635Z,14.63
2022-09-07T01:40:38.285Z,15.00
2022-09-07T01:41:35.613Z,13.32
2022-09-07T01:42:15.585Z,17.00
2022-09-07T01:42:59.495Z,17.00
2022-09-07T01:43:34.061Z,13.93
2022-09-07T01:44:08.005Z,15.80
2022-09-07T01:44:46.529Z,17.52
2022-09-07T01:45:22.163Z,13.27
2022-09-07T01:45:56.158Z,14.80
2022-09-07T01:46:31.849Z,14.43
2022-09-07T01:47:13.197Z,15.77
2022-09-07T01:47:53.073Z,15.90
2022-09-07T01:48:26.478Z,14.25
2022-09-07T01:49:08.287Z,15.93
2022-09-07T01:49:42.630Z,17.52
2022-09-07T01:50:16.845Z,14.23
2022-09-07T01:50:58.023Z,13.80
2022-09-07T01:51:33.545Z,13.57
2022-09-07T01:52:40.068Z,12.80
2022-09-07T01:53:34.861Z,14.30
2022-09-07T01:54:13.119Z,15.65
2022-09-07T01:54:51.837Z,14.82
2022-09-07T01:55:49.855Z,14.75
2022-09-07T01:56:27.808Z,14.82
2022-09-07T01:57:05.175Z,16.05
2022-09-07T01:57:43.568Z,14.30
2022-09-07T01:58:22.034Z,14.73
2022-09-07T01:58:58.722Z,14.60
2022-09-07T01:59:32.617Z,16.00
2022-09-07T02:00:07.951Z,15.98
2022-09-07T02:01:36.643Z,15.20
2022-09-07T02:02:16.674Z,15.65
2022-09-07T02:03:12.106Z,14.23
2022-09-07T02:03:58.446Z,14.75
2022-09-07T02:04:39.981Z,16.43
2022-09-07T02:05:19.149Z,15.63
2022-09-07T02:06:10.759Z,14.10
2022-09-07T02:07:04.800Z,15.80
2022-09-07T02:07:42.365Z,16.40
2022-09-07T02:08:19.473Z,15.07
2022-09-07T02:09:04.633Z,15.55
2022-09-07T02:09:42.739Z,18.95
2022-09-07T02:10:19.439Z,14.90
2022-09-07T02:11:03.901Z,16.02
2022-09-07T02:11:39.960Z,15.43
2022-09-07T02:12:26.985Z,15.45
2022-09-07T02:13:12.231Z,15.65
2022-09-07T02:13:54.221Z,18.10
2022-09-07T02:14:32.252Z,16.65
2022-09-07T02:15:11.107Z,14.55
2022-09-07T02:15:52.236Z,17.40
2022-09-07T02:16:28.417Z,15.45
2022-09-07T02:17:12.317Z,15.35
2022-09-07T02:17:49.645Z,16.70
2022-09-07T02:18:22.936Z,16.63
2022-09-07T02:19:02.553Z,17.15
2022-09-07T02:19:42.496Z,15.32
2022-09-07T02:20:19.456Z,15.90
2022-09-07T02:20:54.560Z,18.08
2022-09-07T02:21:36.565Z,15.40
2022-09-07T02:22:14.399Z,17.95
2022-09-07T02:22:51.067Z,17.25
2022-09-07T02:23:26.245Z,16.25
2022-09-07T02:24:04.583Z,18.08
2022-09-07T02:24:42.894Z,17.47
2022-09-07T02:25:21.981Z,16.83
2022-09-07T02:26:02.129Z,17.10
2022-09-07T02:26:36.739Z,15.77
2022-09-07T02:27:13.540Z,17.70
2022-09-07T02:27:54.399Z,15.45
2022-09-07T02:28:44.166Z,15.73
2022-09-07T02:29:15.874Z,16.48
2022-09-07T02:29:47.645Z,17.30
2022-09-07T02:30:19.353Z,15.75
2022-09-07T02:30:51.179Z,16.43
2022-09-07T02:31:23.753Z,18.15
2022-09-07T02:31:55.479Z,18.60
2022-09-07T02:32:27.131Z,16.17
2022-09-07T02:32:58.860Z,15.95
2022-09-07T02:33:31.064Z,16.80
2022-09-07T02:34:02.677Z,17.60
2022-09-07T02:34:34.406Z,16.95
2022-09-07T02:35:06.781Z,17.13
2022-09-07T02:35:38.596Z,16.65
2022-09-07T02:36:12.722Z,17.20
2022-09-07T02:36:47.758Z,16.90
2022-09-07T02:37:20.579Z,17.08
2022-09-07T02:37:53.124Z,17.23
2022-09-07T02:38:24.829Z,17.25
2022-09-07T02:38:56.535Z,16.42
2022-09-07T02:39:28.404Z,17.30
2022-09-07T02:40:00.494Z,15.93
2022-09-07T02:40:32.662Z,15.57
2022-09-07T02:41:05.450Z,16.88
2022-09-07T02:41:40.303Z,16.47
2022-09-07T02:42:12.013Z,18.88
2022-09-07T02:42:45.153Z,16.75
2022-09-07T02:43:16.811Z,20.88
2022-09-07T02:43:48.425Z,15.60
2022-09-07T02:44:23.294Z,17.23
2022-09-07T02:44:55.085Z,17.63
2022-09-07T02:45:37.866Z,15.52
2022-09-07T02:46:19.679Z,16.35
2022-09-07T02:47:15.754Z,16.42
2022-09-07T02:47:48.558Z,17.30
2022-09-07T02:48:29.755Z,15.85
2022-09-07T02:49:01.356Z,15.52
2022-09-07T02:50:04.350Z,17.23
2022-09-07T02:50:58.666Z,20.33
2022-09-07T02:51:45.567Z,17.27
2022-09-07T02:52:28.994Z,17.23
2022-09-07T02:53:27.539Z,16.85
2022-09-07T02:54:40.557Z,15.05
2022-09-07T02:55:31.708Z,16.95
2022-09-07T02:56:12.605Z,17.23
2022-09-07T02:57:10.030Z,18.73
2022-09-07T02:58:44.127Z,17.55
2022-09-07T02:59:37.506Z,16.80
2022-09-07T03:00:18.022Z,15.82
2022-09-07T03:01:04.235Z,18.02
2022-09-07T03:01:41.722Z,15.90
2022-09-07T03:02:24.893Z,15.80
2022-09-07T03:03:21.440Z,16.95
2022-09-07T03:04:18.642Z,14.35
2022-09-07T03:05:14.594Z,15.30
2022-09-07T03:06:02.941Z,17.23
2022-09-07T03:06:53.409Z,19.25
2022-09-07T03:07:35.782Z,17.88
2022-09-07T03:08:14.063Z,15.55
2022-09-07T03:08:50.605Z,17.33
2022-09-07T03:09:28.683Z,17.52
2022-09-07T03:10:03.121Z,16.77
2022-09-07T03:10:38.734Z,16.83
2022-09-07T03:11:10.613Z,17.55
2022-09-07T03:11:42.593Z,15.33
2022-09-07T03:12:14.463Z,16.70
2022-09-07T03:12:49.320Z,16.52
2022-09-07T03:13:26.747Z,16.13
2022-09-07T03:14:15.419Z,17.63
2022-09-07T03:14:47.039Z,16.13
2022-09-07T03:15:22.496Z,15.55
2022-09-07T03:15:56.308Z,19.35
2022-09-07T03:16:28.151Z,16.83
2022-09-07T03:17:00.462Z,16.85
2022-09-07T03:17:32.185Z,16.90
2022-09-07T03:18:03.845Z,14.10
2022-09-07T03:18:35.449Z,16.52
2022-09-07T03:19:07.064Z,18.85
2022-09-07T03:19:38.733Z,15.68
2022-09-07T03:20:10.685Z,16.83
2022-09-07T03:20:42.318Z,17.20
2022-09-07T03:21:13.929Z,15.85
2022-09-07T03:21:45.724Z,15.88
2022-09-07T03:22:17.309Z,15.25
2022-09-07T03:22:50.577Z,15.20
2022-09-07T03:23:22.310Z,15.52
2022-09-07T03:23:54.964Z,15.18
2022-09-07T03:24:26.537Z,15.05
2022-09-07T03:24:58.138Z,14.15
2022-09-07T03:25:29.735Z,15.57
2022-09-07T03:26:01.339Z,14.63
2022-09-07T03:26:33.009Z,15.07
2022-09-07T03:27:04.637Z,13.27
2022-09-07T03:27:36.375Z,13.82
2022-09-07T03:28:08.005Z,15.80
2022-09-07T03:28:39.594Z,13.70
2022-09-07T03:29:11.305Z,13.43
2022-09-07T03:29:43.001Z,13.65
2022-09-07T03:30:14.781Z,13.63
2022-09-07T03:30:49.345Z,14.73
2022-09-07T03:31:21.089Z,14.25
2022-09-07T03:31:53.030Z,16.73
2022-09-07T03:32:24.947Z,13.70
2022-09-07T03:32:56.625Z,14.63
2022-09-07T03:33:28.253Z,13.80
2022-09-07T03:33:59.915Z,15.00
2022-09-07T03:34:31.574Z,14.63
2022-09-07T03:35:04.745Z,14.20
2022-09-07T03:35:36.349Z,14.80
2022-09-07T03:36:08.167Z,15.80
2022-09-07T03:36:40.497Z,14.50
2022-09-07T03:37:12.126Z,14.48
2022-09-07T03:37:44.308Z,13.88
2022-09-07T03:38:15.961Z,14.23
2022-09-07T03:38:47.533Z,16.10
2022-09-07T03:39:22.616Z,14.82
2022-09-07T03:39:54.330Z,15.60
2022-09-07T03:40:25.969Z,14.23
2022-09-07T03:40:59.676Z,14.25
2022-09-07T03:41:31.443Z,15.15
2022-09-07T03:42:03.119Z,15.75
2022-09-07T03:42:35.458Z,14.80
2022-09-07T03:43:07.070Z,17.13
2022-09-07T03:43:38.900Z,14.80
2022-09-07T03:44:11.793Z,15.73
2022-09-07T03:44:43.389Z,17.35
2022-09-07T03:45:15.014Z,14.45
2022-09-07T03:45:46.628Z,14.98
2022-09-07T03:46:19.578Z,15.15
2022-09-07T03:46:51.277Z,16.52
2022-09-07T03:47:22.897Z,14.63
2022-09-07T03:47:54.525Z,13.60
2022-09-07T03:48:27.305Z,14.90
2022-09-07T03:48:58.997Z,15.00
2022-09-07T03:49:30.927Z,15.67
2022-09-07T03:50:03.022Z,15.90
2022-09-07T03:50:34.622Z,15.70
2022-09-07T03:51:09.022Z,16.58
2022-09-07T03:51:40.609Z,21.55
2022-09-07T03:52:12.414Z,15.20
2022-09-07T03:52:44.279Z,16.35
2022-09-07T03:53:15.899Z,15.88
2022-09-07T03:53:47.885Z,16.50
2022-09-07T03:54:19.468Z,15.43
2022-09-07T03:54:51.061Z,17.60
2022-09-07T03:55:22.720Z,16.40
2022-09-07T03:56:09.355Z,14.90
2022-09-07T03:56:40.975Z,16.27
2022-09-07T03:57:13.322Z,16.42
2022-09-07T03:57:44.904Z,15.45
2022-09-07T03:58:16.510Z,16.80
2022-09-07T03:58:49.938Z,15.95
2022-09-07T03:59:21.772Z,20.20
2022-09-07T03:59:53.363Z,17.63
2022-09-07T04:00:26.138Z,17.23
2022-09-07T04:00:58.820Z,17.25
2022-09-07T04:01:30.640Z,15.57
2022-09-07T04:02:02.561Z,15.52
2022-09-07T04:02:34.270Z,16.25
2022-09-07T04:03:05.882Z,16.45
2022-09-07T04:03:37.855Z,17.02
2022-09-07T04:04:09.488Z,17.42
2022-09-07T04:04:42.863Z,15.90
2022-09-07T04:05:15.054Z,16.08
2022-09-07T04:05:46.750Z,17.47
2022-09-07T04:06:18.783Z,17.05
2022-09-07T04:06:50.926Z,18.33
2022-09-07T04:07:22.547Z,18.25
2022-09-07T04:07:54.156Z,18.17
2022-09-07T04:08:27.821Z,16.45
2022-09-07T04:09:17.752Z,17.52
2022-09-07T04:09:51.322Z,16.65
2022-09-07T04:10:22.914Z,18.83
2022-09-07T04:10:57.300Z,17.38
2022-09-07T04:11:28.902Z,17.60
2022-09-07T04:12:00.698Z,16.65
2022-09-07T04:12:32.342Z,15.75
2022-09-07T04:13:04.258Z,17.70
2022-09-07T04:13:36.684Z,16.52
2022-09-07T04:14:10.103Z,18.27
2022-09-07T04:14:41.730Z,16.38
2022-09-07T04:15:13.374Z,16.83
2022-09-07T04:15:44.962Z,17.33
2022-09-07T04:16:22.048Z,16.85
2022-09-07T04:16:53.736Z,18.63
2022-09-07T04:17:25.330Z,18.00
2022-09-07T04:17:56.918Z,17.90
2022-09-07T04:18:28.504Z,18.90
2022-09-07T04:19:00.194Z,18.23
2022-09-07T04:19:32.073Z,17.90
2022-09-07T04:20:04.630Z,16.17
2022-09-07T04:20:36.252Z,16.17
2022-09-07T04:21:07.994Z,17.25
2022-09-07T04:21:39.966Z,16.95
2022-09-07T04:22:11.693Z,17.43
2022-09-07T04:22:44.132Z,20.98
2022-09-07T04:23:15.726Z,16.90
2022-09-07T04:23:47.914Z,18.02
2022-09-07T04:24:19.532Z,16.98
2022-09-07T04:24:51.187Z,19.27
2022-09-07T04:25:22.848Z,16.25
2022-09-07T04:25:54.539Z,16.85
2022-09-07T04:26:31.925Z,17.27
2022-09-07T04:27:03.612Z,16.65
2022-09-07T04:27:35.237Z,17.17
2022-09-07T04:28:06.818Z,18.58
2022-09-07T04:28:38.404Z,16.13
2022-09-07T04:29:11.371Z,16.98
2022-09-07T04:29:42.977Z,17.20
2022-09-07T04:30:14.588Z,17.65
2022-09-07T04:30:47.451Z,20.02
2022-09-07T04:31:20.308Z,17.20
2022-09-07T04:31:51.994Z,17.00
2022-09-07T04:32:23.610Z,15.27
2022-09-07T04:32:55.210Z,16.07
2022-09-07T04:33:26.788Z,15.52
2022-09-07T04:33:58.498Z,16.13
2022-09-07T04:34:30.256Z,14.90
2022-09-07T04:35:02.114Z,15.52
2022-09-07T04:35:36.836Z,15.23
2022-09-07T04:36:10.484Z,17.40
2022-09-07T04:36:42.143Z,15.30
2022-09-07T04:37:13.731Z,16.00
2022-09-07T04:37:45.574Z,16.08
2022-09-07T04:38:17.241Z,16.63
2022-09-07T04:38:55.737Z,19.70
2022-09-07T04:39:27.421Z,16.73
2022-09-07T04:39:59.100Z,17.35
2022-09-07T04:40:30.744Z,16.67
2022-09-07T04:41:09.413Z,17.08
2022-09-07T04:41:41.022Z,16.40
2022-09-07T04:42:12.657Z,14.52
2022-09-07T04:42:44.394Z,15.00
2022-09-07T04:43:16.093Z,15.88
2022-09-07T04:43:48.194Z,14.50
2022-09-07T04:44:19.777Z,15.43
2022-09-07T04:44:51.362Z,15.23
2022-09-07T04:45:22.972Z,14.73
2022-09-07T04:45:54.769Z,16.85
2022-09-07T04:46:35.126Z,14.50
2022-09-07T04:47:06.914Z,16.33
2022-09-07T04:47:38.516Z,16.95
2022-09-07T04:48:10.105Z,15.60
2022-09-07T04:48:41.693Z,16.10
2022-09-07T04:49:13.824Z,15.33
2022-09-07T04:49:45.402Z,14.70
2022-09-07T04:50:18.382Z,16.45
2022-09-07T04:50:52.080Z,19.17
2022-09-07T04:51:26.278Z,16.77
2022-09-07T04:51:57.916Z,15.93
2022-09-07T04:52:29.544Z,16.42
2022-09-07T04:53:01.137Z,17.88
2022-09-07T04:53:34.159Z,15.80
2022-09-07T04:54:06.318Z,18.17
2022-09-07T04:54:38.025Z,17.73
2022-09-07T04:55:10.379Z,15.02
2022-09-07T04:55:41.965Z,15.35
2022-09-07T04:56:16.872Z,16.80
2022-09-07T04:56:48.722Z,16.50
2022-09-07T04:57:24.243Z,17.40
2022-09-07T04:57:55.881Z,18.48
2022-09-07T04:58:28.020Z,15.63
2022-09-07T04:59:01.369Z,17.08
2022-09-07T04:59:32.953Z,15.88
2022-09-07T05:00:10.964Z,16.80
2022-09-07T05:00:42.742Z,15.55
2022-09-07T05:01:17.668Z,15.55
2022-09-07T05:01:49.340Z,15.50
2022-09-07T05:02:21.046Z,15.57
2022-09-07T05:02:52.895Z,17.02
2022-09-07T05:03:24.583Z,15.88
2022-09-07T05:03:56.819Z,15.77
2022-09-07T05:04:28.407Z,14.15
2022-09-07T05:05:02.743Z,16.23
2022-09-07T05:05:38.171Z,14.37
2022-09-07T05:06:10.486Z,14.50
2022-09-07T05:06:42.221Z,16.33
2022-09-07T05:07:13.967Z,15.15
2022-09-07T05:07:45.617Z,15.10
2022-09-07T05:08:17.282Z,15.40
2022-09-07T05:08:51.331Z,13.82
2022-09-07T05:09:22.973Z,14.93
2022-09-07T05:09:54.549Z,13.52
2022-09-07T05:10:26.356Z,15.07
2022-09-07T05:10:57.965Z,14.30
2022-09-07T05:11:30.166Z,15.98
2022-09-07T05:12:02.189Z,13.85
2022-09-07T05:12:33.789Z,13.23
2022-09-07T05:13:05.500Z,15.65
2022-09-07T05:13:37.469Z,14.45
2022-09-07T05:14:10.430Z,15.07
2022-09-07T05:14:42.021Z,13.82
2022-09-07T05:15:13.725Z,16.25
2022-09-07T05:15:45.374Z,13.43
2022-09-07T05:16:19.661Z,13.70
2022-09-07T05:16:51.330Z,15.40
2022-09-07T05:17:23.015Z,15.02
2022-09-07T05:17:54.591Z,15.40
2022-09-07T05:18:26.687Z,13.65
2022-09-07T05:19:02.751Z,15.80
2022-09-07T05:19:34.377Z,15.38
2022-09-07T05:20:07.145Z,14.65
2022-09-07T05:20:38.733Z,16.20
2022-09-07T05:21:19.177Z,13.60
2022-09-07T05:21:50.781Z,13.27
2022-09-07T05:22:22.462Z,12.50
2022-09-07T05:22:59.546Z,12.68
2022-09-07T05:23:31.264Z,15.85
2022-09-07T05:24:04.190Z,14.73
2022-09-07T05:24:36.779Z,13.02
2022-09-07T05:25:09.563Z,14.70
2022-09-07T05:25:45.425Z,13.98
2022-09-07T05:26:18.153Z,12.30
2022-09-07T05:26:49.765Z,11.80
2022-09-07T05:27:21.489Z,12.50
2022-09-07T05:27:53.441Z,12.88
2022-09-07T05:28:25.027Z,12.57
2022-09-07T05:30:05.834Z,11.20
2022-09-07T05:31:31.210Z,13.18
2022-09-07T05:32:02.853Z,11.75
2022-09-07T05:32:34.430Z,12.45
2022-09-07T05:33:08.214Z,12.55
2022-09-07T05:34:32.524Z,12.40
2022-09-07T05:35:04.682Z,11.73
2022-09-07T05:35:36.315Z,14.25
2022-09-07T05:36:08.713Z,12.70
2022-09-07T05:36:40.448Z,12.55
2022-09-07T05:37:12.124Z,16.63
2022-09-07T05:37:43.827Z,11.80
2022-09-07T05:38:15.443Z,13.32
2022-09-07T05:38:47.441Z,11.80
2022-09-07T05:39:21.089Z,13.37
2022-09-07T05:39:56.893Z,13.35
2022-09-07T05:40:31.796Z,12.13
2022-09-07T05:41:17.794Z,11.60
2022-09-07T05:41:49.814Z,10.85
2022-09-07T05:42:21.412Z,11.05
2022-09-07T05:42:53.001Z,12.43
2022-09-07T05:43:24.657Z,12.70
2022-09-07T05:44:48.146Z,10.02
2022-09-07T05:45:19.832Z,12.33
2022-09-07T05:45:55.337Z,12.88
2022-09-07T05:46:27.010Z,13.52
2022-09-07T05:46:58.619Z,12.23
2022-09-07T05:47:30.264Z,12.18
2022-09-07T05:48:02.187Z,13.70
2022-09-07T05:48:33.984Z,11.27
2022-09-07T05:49:06.475Z,10.95
2022-09-07T05:49:38.186Z,11.02
2022-09-07T05:50:10.700Z,12.05
2022-09-07T05:50:52.696Z,9.30
2022-09-07T05:51:24.288Z,12.10
2022-09-07T05:51:55.864Z,11.55
2022-09-07T05:52:27.469Z,11.43
2022-09-07T05:52:59.330Z,12.25
2022-09-07T05:53:31.619Z,12.18
2022-09-07T05:54:03.670Z,13.18
2022-09-07T05:54:35.374Z,13.52
2022-09-07T05:55:28.183Z,11.20
2022-09-07T05:56:03.949Z,12.30
2022-09-07T05:56:38.211Z,14.00
2022-09-07T05:57:12.102Z,14.85
2022-09-07T05:57:43.700Z,10.98
2022-09-07T05:58:16.129Z,10.30
2022-09-07T05:58:50.808Z,12.05
2022-09-07T05:59:22.412Z,9.05
2022-09-07T05:59:54.061Z,12.40
2022-09-07T06:00:25.678Z,10.90
2022-09-07T06:01:01.809Z,13.25
2022-09-07T06:01:35.344Z,11.02
2022-09-07T06:02:07.693Z,12.70
2022-09-07T06:02:40.007Z,10.55
2022-09-07T06:03:12.094Z,10.35
2022-09-07T06:03:44.706Z,10.48
2022-09-07T06:04:16.659Z,14.63
2022-09-07T06:04:48.602Z,11.50
2022-09-07T06:05:20.193Z,12.35
2022-09-07T06:06:11.951Z,11.32
2022-09-07T06:06:54.590Z,14.32
2022-09-07T06:07:35.147Z,12.02
2022-09-07T06:08:06.834Z,10.87
2022-09-07T06:08:43.520Z,12.20
2022-09-07T06:09:15.114Z,12.70
2022-09-07T06:10:46.140Z,11.45
2022-09-07T06:11:20.326Z,12.23
2022-09-07T06:11:51.912Z,10.93
2022-09-07T06:12:23.572Z,11.35
2022-09-07T06:12:55.151Z,11.50
2022-09-07T06:13:26.979Z,11.85
2022-09-07T06:13:58.591Z,13.33
2022-09-07T06:14:30.208Z,10.20
2022-09-07T06:15:01.921Z,11.80
2022-09-07T06:15:34.422Z,11.82
2022-09-07T06:16:08.166Z,11.02
2022-09-07T06:16:40.129Z,13.85
2022-09-07T06:17:11.746Z,13.63
2022-09-07T06:17:43.468Z,10.50
2022-09-07T06:18:15.247Z,12.18
2022-09-07T06:18:48.607Z,12.23
2022-09-07T06:19:20.190Z,11.77
2022-09-07T06:19:51.774Z,12.73
2022-09-07T06:20:23.381Z,13.45
2022-09-07T06:20:55.059Z,13.57
2022-09-07T06:21:26.790Z,14.15
2022-09-07T06:21:58.376Z,12.15
2022-09-07T06:22:31.241Z,16.02
2022-09-07T06:23:03.013Z,9.55
2022-09-07T06:23:36.607Z,12.38
2022-09-07T06:24:08.476Z,13.85
2022-09-07T06:24:40.074Z,11.50
2022-09-07T06:25:11.659Z,10.98
2022-09-07T06:25:49.805Z,12.10
2022-09-07T06:26:21.550Z,10.30
2022-09-07T06:26:53.174Z,11.95
2022-09-07T06:27:24.811Z,10.35
2022-09-07T06:27:56.400Z,11.05
2022-09-07T06:28:30.134Z,15.20
2022-09-07T06:29:02.645Z,13.23
2022-09-07T06:29:34.378Z,11.25
2022-09-07T06:30:07.413Z,10.53
2022-09-07T06:30:39.042Z,10.70
2022-09-07T06:31:13.548Z,10.73
2022-09-07T06:32:45.691Z,10.25
2022-09-07T06:33:21.425Z,10.68
2022-09-07T06:33:54.913Z,10.85
2022-09-07T06:34:26.740Z,10.20
2022-09-07T06:34:58.362Z,11.48
2022-09-07T06:35:29.954Z,11.82
2022-09-07T06:36:21.837Z,9.73
2022-09-07T06:36:53.459Z,11.07
2022-09-07T06:37:25.082Z,9.68
2022-09-07T06:37:56.757Z,10.18
2022-09-07T06:38:32.841Z,13.40
2022-09-07T06:39:04.470Z,10.52
2022-09-07T06:39:36.469Z,10.20
2022-09-07T06:40:10.477Z,10.02
2022-09-07T06:40:42.420Z,11.02
2022-09-07T06:42:10.622Z,9.13
2022-09-07T06:42:42.375Z,11.88
2022-09-07T06:43:13.962Z,12.02
2022-09-07T06:43:46.502Z,10.00
2022-09-07T06:44:18.308Z,10.10
2022-09-07T06:44:49.883Z,11.43
2022-09-07T06:45:21.599Z,12.52
2022-09-07T06:45:54.617Z,9.73
2022-09-07T06:47:18.693Z,9.57
2022-09-07T06:47:53.950Z,9.50
2022-09-07T06:48:25.770Z,10.70
2022-09-07T06:48:57.398Z,9.70
2022-09-07T06:49:29.074Z,12.70
2022-09-07T06:50:01.481Z,11.48
2022-09-07T06:50:33.720Z,10.15
2022-09-07T06:51:19.533Z,10.30
2022-09-07T06:51:51.306Z,10.13
2022-09-07T06:52:23.004Z,11.65
2022-09-07T06:53:48.313Z,12.13
2022-09-07T06:55:11.718Z,10.85
2022-09-07T06:55:46.141Z,12.85
2022-09-07T06:56:19.309Z,11.45
2022-09-07T06:56:50.986Z,9.77
2022-09-07T06:57:22.571Z,10.98
2022-09-07T06:57:54.675Z,10.13
2022-09-07T06:58:27.120Z,10.68
2022-09-07T06:58:59.831Z,11.20
2022-09-07T06:59:31.404Z,12.20
2022-09-07T07:00:03.778Z,12.32
2022-09-07T07:00:35.454Z,11.05
2022-09-07T07:01:18.484Z,12.55
2022-09-07T07:01:50.175Z,9.48
2022-09-07T07:02:21.802Z,10.35
2022-09-07T07:02:53.431Z,9.80
2022-09-07T07:03:25.195Z,9.07
2022-09-07T07:03:56.851Z,10.30
2022-09-07T07:04:28.431Z,13.93
2022-09-07T07:05:00.015Z,10.87
2022-09-07T07:05:31.829Z,10.77
2022-09-07T07:06:04.296Z,11.73
2022-09-07T07:06:37.810Z,11.63
2022-09-07T07:07:13.952Z,13.10
2022-09-07T07:07:45.571Z,10.63
2022-09-07T07:08:17.218Z,10.20
2022-09-07T07:08:53.236Z,10.95
2022-09-07T07:09:24.861Z,10.50
2022-09-07T07:09:56.451Z,9.45
2022-09-07T07:10:28.235Z,9.80
2022-09-07T07:11:08.124Z,10.70
2022-09-07T07:11:39.726Z,11.30
2022-09-07T07:12:11.466Z,9.98
2022-09-07T07:13:48.049Z,9.73
2022-09-07T07:14:21.167Z,12.85
2022-09-07T07:14:52.840Z,10.20
2022-09-07T07:15:28.625Z,9.23
2022-09-07T07:16:12.319Z,8.82
2022-09-07T07:16:44.146Z,9.43
2022-09-07T07:17:15.771Z,9.15
2022-09-07T07:17:53.160Z,11.27
2022-09-07T07:18:27.863Z,10.13
2022-09-07T07:18:59.518Z,10.90
2022-09-07T07:19:31.102Z,9.95
2022-09-07T07:20:02.973Z,9.85
2022-09-07T07:20:42.170Z,8.90
2022-09-07T07:21:15.644Z,10.43
2022-09-07T07:22:47.035Z,12.40
2022-09-07T07:23:18.862Z,10.95
2022-09-07T07:23:52.269Z,8.55
2022-09-07T07:24:23.850Z,7.82
2022-09-07T07:24:55.454Z,9.63
2022-09-07T07:25:27.268Z,10.07
2022-09-07T07:26:06.203Z,10.02
2022-09-07T07:26:38.164Z,9.18
2022-09-07T07:27:09.801Z,10.88
2022-09-07T07:27:41.574Z,10.85
2022-09-07T07:29:05.678Z,9.57
2022-09-07T07:29:37.261Z,10.35
2022-09-07T07:30:09.327Z,9.75
2022-09-07T07:30:40.937Z,8.93
2022-09-07T07:31:13.383Z,9.40
2022-09-07T07:31:45.183Z,9.52
2022-09-07T07:32:16.844Z,8.70
2022-09-07T07:32:48.467Z,10.32
2022-09-07T07:33:20.113Z,12.65
2022-09-07T07:33:54.074Z,10.95
2022-09-07T07:34:25.809Z,12.95
2022-09-07T07:34:57.486Z,9.15
2022-09-07T07:35:29.166Z,9.18
2022-09-07T07:36:08.500Z,10.97
2022-09-07T07:36:40.477Z,9.68
2022-09-07T07:37:12.022Z,10.18
2022-09-07T07:37:43.600Z,8.13
2022-09-07T07:39:06.805Z,11.45
2022-09-07T07:40:31.839Z,8.70
2022-09-07T07:42:00.140Z,8.07
2022-09-07T07:42:38.471Z,11.93
2022-09-07T07:43:10.181Z,11.07
2022-09-07T07:43:41.921Z,10.35
2022-09-07T07:44:13.500Z,9.18
2022-09-07T07:44:45.294Z,11.73
2022-09-07T07:46:12.705Z,9.18
2022-09-07T07:46:50.514Z,9.27